Time;durP1;ratioP1;P1;durP2;ratioP2;P2;SDS_P1;SDS_P2;PMS_P1;PMS_P2;Temp;Humidity;BMP_temperature;BMP_pressure;BME280_temperature;BME280_humidity;BME280_pressure;Samples;Min_cycle;Max_cycle;Signal;HPM_P1;HPM_P2
2021/05/26 00:00:19;;;;;;;21.58;10.55;;;;;;;15.46;52.61;100643.91;5044477;28;20102;-74
2021/05/26 00:02:46;;;;;;;22.75;10.07;;;;;;;15.43;53.15;100645.78;5012839;28;20037;-63
2021/05/26 00:05:13;;;;;;;32.33;10.35;;;;;;;15.41;53.08;100645.81;5045195;28;20057;-64
2021/05/26 00:07:40;;;;;;;24.55;9.80;;;;;;;15.34;53.20;100636.16;5015070;28;20076;-65
2021/05/26 00:10:07;;;;;;;29.38;10.75;;;;;;;15.36;53.00;100637.06;5024527;28;20118;-68
2021/05/26 00:12:35;;;;;;;22.67;9.90;;;;;;;15.32;53.49;100639.78;5042402;28;20049;-63
2021/05/26 00:15:01;;;;;;;20.77;9.23;;;;;;;15.28;53.58;100639.00;5045248;28;20049;-64
2021/05/26 00:17:28;;;;;;;23.02;9.90;;;;;;;15.22;54.16;100635.56;5034378;28;20103;-69
2021/05/26 00:19:55;;;;;;;35.53;10.35;;;;;;;15.18;53.45;100636.56;5019519;28;20869;-64
2021/05/26 00:22:22;;;;;;;25.15;9.63;;;;;;;15.12;54.45;100632.28;5028699;28;20068;-64
2021/05/26 00:24:48;;;;;;;28.38;10.73;;;;;;;15.07;55.44;100635.97;5044755;28;20497;-65
2021/05/26 00:27:14;;;;;;;30.10;12.43;;;;;;;15.05;57.30;100641.34;5040836;28;20080;-63
2021/05/26 00:29:39;;;;;;;28.88;12.70;;;;;;;14.98;58.09;100639.75;5044362;28;20048;-67
2021/05/26 00:32:06;;;;;;;34.25;12.77;;;;;;;14.88;58.45;100635.56;5020127;28;20119;-67
2021/05/26 00:34:31;;;;;;;33.25;13.55;;;;;;;14.90;59.40;100648.84;5043579;28;20132;-69
2021/05/26 00:37:01;;;;;;;39.17;13.13;;;;;;;14.90;60.19;100647.06;5026973;28;20132;-64
2021/05/26 00:39:27;;;;;;;42.17;13.73;;;;;;;14.68;60.62;100623.56;5044247;28;20044;-64
2021/05/26 00:41:53;;;;;;;34.70;13.40;;;;;;;14.82;59.80;100649.03;5026934;28;20110;-66
2021/05/26 00:44:19;;;;;;;34.78;14.35;;;;;;;14.76;60.69;100651.84;5040307;28;20041;-63
2021/05/26 00:46:46;;;;;;;37.00;14.15;;;;;;;14.70;60.22;100643.09;5043284;28;20105;-61
2021/05/26 00:49:13;;;;;;;32.47;13.63;;;;;;;14.71;59.91;100648.38;5044402;28;20048;-66
2021/05/26 00:51:40;;;;;;;41.28;15.00;;;;;;;14.72;60.03;100642.13;5032987;28;20083;-69
2021/05/26 00:54:06;;;;;;;39.38;14.23;;;;;;;14.71;59.89;100640.38;5013521;28;20068;-74
2021/05/26 00:56:33;;;;;;;30.33;12.23;;;;;;;14.59;58.15;100623.78;5007457;28;20087;-67
2021/05/26 00:59:07;;;;;;;28.23;9.88;;;;;;;14.72;57.34;100646.59;5012475;28;20040;-69
2021/05/26 01:01:34;;;;;;;21.65;9.82;;;;;;;14.54;56.69;100623.88;5043459;28;20041;-67
2021/05/26 01:04:03;;;;;;;27.25;9.95;;;;;;;14.71;56.65;100643.03;5016336;28;20044;-68
2021/05/26 01:06:29;;;;;;;30.98;10.55;;;;;;;14.78;56.59;100646.44;5027536;28;20045;-68
2021/05/26 01:08:56;;;;;;;30.42;11.05;;;;;;;14.71;56.98;100635.03;5024520;28;20037;-68
2021/05/26 01:11:22;;;;;;;26.13;10.75;;;;;;;14.80;56.72;100639.31;5026109;28;20401;-68
2021/05/26 01:13:48;;;;;;;24.48;10.63;;;;;;;14.93;56.34;100647.00;5046921;28;20411;-66
2021/05/26 01:16:17;;;;;;;25.10;10.13;;;;;;;14.99;56.24;100646.84;5029636;28;20080;-71
2021/05/26 01:18:43;;;;;;;26.50;10.35;;;;;;;15.04;56.29;100638.72;5031122;28;20830;-63
2021/05/26 01:21:15;;;;;;;25.55;11.23;;;;;;;15.02;56.30;100644.09;5047864;28;20057;-63
2021/05/26 01:23:47;;;;;;;31.20;11.48;;;;;;;15.04;56.22;100628.94;5030764;28;20044;-68
2021/05/26 01:26:15;;;;;;;30.10;11.07;;;;;;;15.12;55.86;100642.97;5044717;28;20208;-67
2021/05/26 01:28:43;;;;;;;46.05;13.27;;;;;;;15.22;58.37;100644.47;5035624;28;20520;-65
2021/05/26 01:31:18;;;;;;;33.42;12.82;;;;;;;15.25;58.94;100646.19;5040772;28;20076;-66
2021/05/26 01:34:03;;;;;;;39.15;14.55;;;;;;;15.28;59.75;100644.34;5040326;28;20088;-62
2021/05/26 01:36:41;;;;;;;40.67;13.88;;;;;;;15.27;59.44;100647.91;4991655;28;20091;-64
2021/05/26 01:39:09;;;;;;;45.20;14.43;;;;;;;15.23;59.76;100654.25;5044179;28;20801;-69
2021/05/26 01:41:35;;;;;;;43.50;14.43;;;;;;;15.24;58.80;100648.00;5030732;28;20052;-65
2021/05/26 01:44:03;;;;;;;40.17;13.50;;;;;;;15.12;59.10;100621.59;5027481;28;20126;-69
2021/05/26 01:46:29;;;;;;;36.00;13.07;;;;;;;15.24;59.02;100647.13;5029703;28;20036;-75
2021/05/26 01:48:57;;;;;;;32.15;13.57;;;;;;;15.22;59.47;100640.94;5044114;28;20136;-69
2021/05/26 01:51:24;;;;;;;30.42;12.90;;;;;;;14.84;59.35;100590.25;5029334;28;20040;-69
2021/05/26 01:53:52;;;;;;;34.72;13.07;;;;;;;15.18;59.44;100650.81;5017139;28;20511;-70
2021/05/26 01:56:24;;;;;;;38.15;14.13;;;;;;;15.23;59.65;100648.91;5033648;28;20090;-73
2021/05/26 01:59:10;;;;;;;36.50;13.85;;;;;;;15.24;59.93;100640.00;4998507;28;20143;-69
2021/05/26 02:01:37;;;;;;;54.60;15.52;;;;;;;15.27;59.98;100639.91;5018286;28;20569;-70
2021/05/26 02:04:06;;;;;;;39.50;14.77;;;;;;;15.17;59.79;100618.78;5047835;28;20037;-71
2021/05/26 02:06:32;;;;;;;35.42;14.23;;;;;;;15.35;60.17;100643.28;5041053;28;20409;-68
2021/05/26 02:08:58;;;;;;;44.63;14.38;;;;;;;15.38;60.43;100637.88;5031227;28;20044;-71
2021/05/26 02:14:16;;;;;;;35.60;13.88;;;;;;;15.39;60.73;100652.13;5040638;28;20245;-70
2021/05/26 02:16:42;;;;;;;43.78;13.43;;;;;;;15.36;59.94;100652.19;5013633;28;20132;-71
2021/05/26 02:19:08;;;;;;;29.88;13.50;;;;;;;15.25;60.62;100636.41;5032055;28;20541;-69
2021/05/26 02:21:35;;;;;;;39.25;13.63;;;;;;;15.30;61.65;100646.94;5040192;28;20117;-70
2021/05/26 02:24:01;;;;;;;38.05;14.70;;;;;;;15.29;61.52;100639.84;5017778;28;20047;-72
2021/05/26 02:26:28;;;;;;;39.25;13.40;;;;;;;15.27;61.22;100642.56;5042746;28;20052;-72
2021/05/26 02:28:56;;;;;;;40.15;13.98;;;;;;;15.21;60.67;100645.41;5046438;28;20115;-69
2021/05/26 02:31:24;;;;;;;32.38;13.38;;;;;;;15.20;60.77;100642.78;5034526;28;20051;-67
2021/05/26 02:33:49;;;;;;;28.73;12.98;;;;;;;15.18;60.98;100639.25;5028834;28;20135;-70
2021/05/26 02:36:18;;;;;;;40.95;13.15;;;;;;;15.25;60.28;100640.84;5018627;28;20045;-70
2021/05/26 02:38:51;;;;;;;29.60;11.63;;;;;;;15.13;56.94;100631.38;4996193;28;20119;-66
2021/05/26 02:41:18;;;;;;;25.60;11.88;;;;;;;15.02;56.98;100616.50;5025924;28;20053;-66
2021/05/26 02:43:44;;;;;;;38.22;11.90;;;;;;;15.18;56.78;100647.25;5011891;28;20086;-65
2021/05/26 02:46:10;;;;;;;35.25;12.23;;;;;;;15.16;56.46;100639.31;5045153;28;20135;-66
2021/05/26 02:48:36;;;;;;;28.58;12.55;;;;;;;15.20;56.32;100632.09;5046196;28;20040;-70
2021/05/26 02:51:02;;;;;;;38.08;12.70;;;;;;;15.23;56.49;100640.88;5027793;28;20048;-63
2021/05/26 02:53:30;;;;;;;28.60;12.90;;;;;;;15.19;56.90;100638.34;5046287;28;20070;-68
2021/05/26 02:55:57;;;;;;;35.75;13.65;;;;;;;15.28;56.23;100635.44;5027985;28;20108;-67
2021/05/26 02:58:36;;;;;;;40.30;14.95;;;;;;;15.25;56.05;100646.19;5028719;28;20047;-65
2021/05/26 03:01:21;;;;;;;36.35;13.68;;;;;;;15.23;56.43;100637.34;5025650;28;20033;-66
2021/05/26 03:04:02;;;;;;;35.20;13.38;;;;;;;15.34;56.34;100646.84;5030954;28;20044;-66
2021/05/26 03:06:33;;;;;;;37.97;14.27;;;;;;;15.33;56.25;100634.41;5018278;28;20045;-66
2021/05/26 03:09:00;;;;;;;38.10;13.32;;;;;;;15.49;55.75;100657.19;5035073;28;20102;-69
2021/05/26 03:11:35;;;;;;;37.28;13.85;;;;;;;15.51;55.06;100655.34;5026812;28;20037;-64
2021/05/26 03:14:24;;;;;;;51.85;14.82;;;;;;;15.48;55.28;100658.13;5010698;28;20045;-64
2021/05/26 03:16:54;;;;;;;33.60;14.10;;;;;;;15.52;55.76;100659.78;5045611;28;20044;-65
2021/05/26 03:19:20;;;;;;;34.83;14.32;;;;;;;15.53;55.26;100650.84;5010925;28;20718;-63
2021/05/26 03:21:49;;;;;;;38.30;14.20;;;;;;;15.58;55.34;100662.28;5037576;28;20045;-65
2021/05/26 03:24:34;;;;;;;37.40;14.48;;;;;;;15.65;55.87;100647.84;5042693;28;20128;-65
2021/05/26 03:27:02;;;;;;;67.22;17.95;;;;;;;15.72;57.45;100654.81;5002941;28;20052;-66
2021/05/26 03:29:28;;;;;;;50.65;16.98;;;;;;;15.78;57.63;100651.09;5010667;28;20333;-66
2021/05/26 03:31:53;;;;;;;34.30;14.50;;;;;;;15.49;55.70;100593.03;5045237;28;20045;-67
2021/05/26 03:34:23;;;;;;;50.20;15.48;;;;;;;15.79;54.58;100631.44;5043747;28;20443;-67
2021/05/26 03:36:49;;;;;;;37.92;15.07;;;;;;;15.88;54.37;100647.22;5025878;28;20469;-66
2021/05/26 03:39:16;;;;;;;49.42;14.98;;;;;;;16.00;54.22;100647.78;5014360;28;20556;-66
2021/05/26 03:41:43;;;;;;;44.15;15.73;;;;;;;15.95;54.30;100647.00;5005995;28;20054;-65
2021/05/26 03:44:09;;;;;;;38.72;15.35;;;;;;;15.77;54.76;100627.91;5044446;28;20135;-66
2021/05/26 03:46:38;;;;;;;42.10;16.00;;;;;;;15.90;55.09;100640.91;5030062;28;20053;-66
2021/05/26 03:49:06;;;;;;;35.25;15.95;;;;;;;15.95;54.49;100647.00;5032537;28;20044;-66
2021/05/26 03:51:34;;;;;;;38.97;15.55;;;;;;;16.08;54.21;100652.91;5028244;28;20445;-66
2021/05/26 03:54:03;;;;;;;33.50;15.10;;;;;;;15.98;54.25;100630.88;5027181;28;20124;-67
2021/05/26 03:56:54;;;;;;;;;;;;;;;16.06;54.31;100655.63;5037650;28;20160;-67
2021/05/26 03:59:21;;;;;;;41.00;14.65;;;;;;;16.07;53.72;100645.81;5028949;28;19970;-66
2021/05/26 04:01:50;;;;;;;39.13;15.57;;;;;;;16.22;54.16;100646.22;5029325;28;20045;-66
2021/05/26 04:04:15;;;;;;;35.80;15.32;;;;;;;16.30;53.58;100632.66;5043567;28;20098;-66
2021/05/26 04:06:42;;;;;;;41.85;15.02;;;;;;;16.55;52.28;100647.06;5027543;28;20068;-66
2021/05/26 04:09:10;;;;;;;46.38;14.77;;;;;;;16.62;51.50;100643.28;5011163;28;20489;-66
2021/05/26 04:11:41;;;;;;;35.55;14.13;;;;;;;16.80;50.83;100651.63;5025067;28;20126;-67
2021/05/26 04:14:32;;;;;;;32.88;13.23;;;;;;;16.86;51.19;100640.72;4990493;28;20157;-66
2021/05/26 04:17:17;;;;;;;48.50;15.05;;;;;;;16.93;50.73;100644.09;5008702;28;20061;-65
2021/05/26 04:20:04;;;;;;;44.92;14.80;;;;;;;16.96;50.92;100652.91;5026358;28;20335;-63
2021/05/26 04:22:34;;;;;;;57.97;16.23;;;;;;;16.89;50.47;100629.03;5025677;28;20056;-63
2021/05/26 04:25:02;;;;;;;49.60;15.63;;;;;;;17.05;50.68;100651.75;5030892;28;20408;-63
2021/05/26 04:27:28;;;;;;;34.05;13.45;;;;;;;16.84;48.94;100631.88;5033126;28;20095;-62
2021/05/26 04:29:55;;;;;;;28.23;11.35;;;;;;;16.78;48.29;100623.16;5032881;28;20052;-63
2021/05/26 04:32:21;;;;;;;32.80;11.98;;;;;;;17.07;48.12;100648.09;5013453;28;20045;-63
2021/05/26 04:34:47;;;;;;;34.55;12.95;;;;;;;17.24;49.50;100643.03;5035160;28;20646;-63
2021/05/26 04:37:14;;;;;;;38.50;12.95;;;;;;;17.36;48.73;100648.00;5036168;28;20500;-65
2021/05/26 04:39:40;;;;;;;51.17;15.23;;;;;;;17.42;49.45;100645.16;5025886;28;20048;-64
2021/05/26 04:42:06;;;;;;;32.30;12.13;;;;;;;17.16;48.13;100625.44;5031428;28;20099;-65
2021/05/26 04:44:32;;;;;;;24.55;11.65;;;;;;;17.21;47.62;100620.84;5045654;28;20460;-65
2021/05/26 04:46:58;;;;;;;29.77;13.35;;;;;;;17.38;48.48;100643.47;5039740;28;20104;-64
2021/05/26 04:49:24;;;;;;;38.80;13.40;;;;;;;17.15;49.21;100627.28;5047770;28;20416;-65
2021/05/26 04:51:49;;;;;;;38.97;12.57;;;;;;;17.27;49.10;100648.31;5048000;28;20124;-65
2021/05/26 04:54:15;;;;;;;31.05;12.40;;;;;;;17.33;48.58;100647.22;5047756;28;20571;-67
2021/05/26 04:56:44;;;;;;;33.15;12.27;;;;;;;17.41;48.67;100647.88;5004816;28;20055;-66
2021/05/26 04:59:11;;;;;;;38.92;12.30;;;;;;;17.48;48.83;100649.41;5013192;28;20049;-65
2021/05/26 05:01:39;;;;;;;30.67;12.88;;;;;;;17.44;49.32;100637.91;5029762;28;20123;-66
2021/05/26 05:04:06;;;;;;;36.30;15.80;;;;;;;17.50;49.55;100645.78;5027677;28;20568;-67
2021/05/26 05:06:33;;;;;;;34.38;13.73;;;;;;;17.61;50.43;100643.56;5027629;28;20041;-67
2021/05/26 05:09:00;;;;;;;37.30;13.90;;;;;;;17.58;50.94;100648.19;5026422;28;20037;-68
2021/05/26 05:11:26;;;;;;;39.65;13.30;;;;;;;17.67;50.26;100632.66;5026862;28;20074;-67
2021/05/26 05:13:52;;;;;;;38.78;13.32;;;;;;;17.82;49.82;100632.13;5028477;28;20040;-66
2021/05/26 05:16:18;;;;;;;23.52;11.25;;;;;;;17.65;50.05;100633.63;5046455;28;20087;-67
2021/05/26 05:18:45;;;;;;;24.55;10.80;;;;;;;17.77;49.26;100627.84;5014955;28;20051;-67
2021/05/26 05:21:11;;;;;;;28.67;11.43;;;;;;;17.90;49.57;100627.34;5019528;28;20049;-67
2021/05/26 05:23:37;;;;;;;26.63;11.02;;;;;;;18.02;48.82;100629.59;5029328;28;20044;-63
2021/05/26 05:26:03;;;;;;;21.80;8.88;;;;;;;18.09;47.23;100631.09;5027433;28;20045;-65
2021/05/26 05:28:29;;;;;;;26.83;9.45;;;;;;;18.22;47.08;100619.88;5034027;28;20061;-63
2021/05/26 05:30:55;;;;;;;27.00;10.13;;;;;;;18.43;46.83;100624.50;5020516;28;20049;-65
2021/05/26 05:33:21;;;;;;;25.25;8.45;;;;;;;18.53;45.82;100615.16;5035605;28;20056;-65
2021/05/26 05:35:47;;;;;;;22.30;8.27;;;;;;;18.58;45.84;100622.09;5017382;28;20211;-65
2021/05/26 05:38:13;;;;;;;21.23;9.27;;;;;;;18.42;45.86;100596.75;5047281;28;20538;-66
2021/05/26 05:40:39;;;;;;;27.63;9.70;;;;;;;18.63;45.31;100617.41;5015088;28;20041;-66
2021/05/26 05:43:05;;;;;;;23.98;8.98;;;;;;;18.78;45.10;100610.59;5041470;28;20060;-65
2021/05/26 05:45:30;;;;;;;24.10;9.52;;;;;;;18.86;44.71;100612.00;5046630;28;20052;-65
2021/05/26 05:47:56;;;;;;;27.73;10.93;;;;;;;18.87;45.07;100611.06;5027014;28;20056;-63
2021/05/26 05:50:22;;;;;;;24.50;11.07;;;;;;;18.98;44.68;100608.81;5046316;28;20071;-65
2021/05/26 05:52:48;;;;;;;26.30;12.02;;;;;;;19.05;44.71;100614.81;5029060;28;20064;-64
2021/05/26 05:55:15;;;;;;;24.95;10.20;;;;;;;19.01;43.24;100614.06;5045813;28;20068;-66
2021/05/26 05:57:42;;;;;;;26.40;9.55;;;;;;;19.13;43.15;100612.69;5008381;28;20041;-66
2021/05/26 06:00:10;;;;;;;25.55;9.20;;;;;;;19.21;43.41;100608.75;5028407;28;20527;-65
2021/05/26 06:02:47;;;;;;;22.63;6.55;;;;;;;19.25;41.53;100606.84;5037240;28;20505;-65
2021/05/26 06:05:16;;;;;;;17.83;5.88;;;;;;;19.22;42.68;100606.94;5036628;28;20033;-66
2021/05/26 06:07:42;;;;;;;11.95;3.92;;;;;;;19.26;40.74;100613.97;5028963;28;20045;-65
2021/05/26 06:10:09;;;;;;;20.05;5.07;;;;;;;19.45;40.64;100620.31;5009525;28;20653;-67
2021/05/26 06:12:35;;;;;;;10.55;3.80;;;;;;;19.58;40.52;100617.03;5028318;28;20090;-66
2021/05/26 06:15:03;;;;;;;11.85;3.95;;;;;;;19.60;39.14;100612.47;5046065;28;20519;-66
2021/05/26 06:17:29;;;;;;;6.43;2.70;;;;;;;19.45;38.52;100596.09;5045599;28;20386;-65
2021/05/26 06:19:55;;;;;;;14.00;2.60;;;;;;;19.47;37.87;100588.84;5014069;28;20045;-66
2021/05/26 06:22:21;;;;;;;8.57;2.30;;;;;;;19.70;38.39;100611.13;5038129;28;20051;-67
2021/05/26 06:24:48;;;;;;;15.43;2.90;;;;;;;19.82;38.84;100615.97;5044723;28;20045;-67
2021/05/26 06:27:13;;;;;;;7.22;2.40;;;;;;;19.87;38.79;100613.09;5037930;28;20045;-64
2021/05/26 06:29:39;;;;;;;7.10;2.60;;;;;;;19.80;38.30;100606.22;5044412;28;20060;-65
2021/05/26 06:32:06;;;;;;;11.75;2.58;;;;;;;19.97;37.46;100611.75;5047045;28;20436;-63
2021/05/26 06:34:32;;;;;;;10.05;1.88;;;;;;;20.02;37.09;100613.25;5046972;28;20101;-65
2021/05/26 06:36:58;;;;;;;7.72;2.25;;;;;;;20.04;36.21;100608.69;5046815;28;20040;-65
2021/05/26 06:39:25;;;;;;;7.60;2.00;;;;;;;19.89;36.47;100590.53;5037559;28;20041;-67
2021/05/26 06:41:51;;;;;;;12.93;2.13;;;;;;;19.98;36.27;100611.66;5044840;28;20130;-66
2021/05/26 06:44:17;;;;;;;5.38;1.92;;;;;;;19.84;36.29;100597.06;5029668;28;20045;-66
2021/05/26 06:46:42;;;;;;;5.10;1.58;;;;;;;19.99;35.92;100610.72;5044519;28;20500;-67
2021/05/26 06:49:08;;;;;;;4.68;1.55;;;;;;;20.11;35.60;100599.44;5041457;28;20857;-68
2021/05/26 06:51:35;;;;;;;6.32;1.90;;;;;;;20.30;36.21;100608.41;5045369;28;20531;-66
2021/05/26 06:54:02;;;;;;;4.60;1.95;;;;;;;20.45;35.75;100605.00;5033011;28;20497;-65
2021/05/26 06:56:28;;;;;;;2.80;1.63;;;;;;;20.27;35.93;100595.09;5033221;28;20415;-69
2021/05/26 06:58:55;;;;;;;9.30;1.77;;;;;;;20.55;35.50;100594.66;5025097;28;20057;-64
2021/05/26 07:01:21;;;;;;;5.65;2.20;;;;;;;20.86;35.44;100592.25;5043271;28;20567;-63
2021/05/26 07:03:49;;;;;;;12.65;1.90;;;;;;;21.15;34.83;100591.72;5008671;28;20049;-66
2021/05/26 07:06:15;;;;;;;11.02;1.60;;;;;;;21.42;33.67;100584.91;5027866;28;20045;-61
2021/05/26 07:08:41;;;;;;;6.20;1.77;;;;;;;21.76;33.56;100583.13;5011258;28;20044;-63
2021/05/26 07:11:07;;;;;;;5.55;1.30;;;;;;;21.87;32.06;100596.94;5012075;28;20098;-65
2021/05/26 07:13:33;;;;;;;5.40;1.30;;;;;;;22.07;31.77;100601.25;5043748;28;20045;-63
2021/05/26 07:15:59;;;;;;;4.05;1.30;;;;;;;22.03;30.92;100588.88;5028502;28;20090;-62
2021/05/26 07:18:28;;;;;;;12.88;1.42;;;;;;;21.96;31.12;100577.53;5045907;28;20060;-63
2021/05/26 07:20:54;;;;;;;13.05;1.80;;;;;;;22.21;31.17;100576.22;5013848;28;20059;-65
2021/05/26 07:23:21;;;;;;;10.75;1.52;;;;;;;22.45;31.29;100593.78;5028454;28;20702;-59
2021/05/26 07:25:47;;;;;;;5.18;1.50;;;;;;;22.66;30.50;100593.50;5045246;28;20512;-61
2021/05/26 07:28:13;;;;;;;7.32;1.77;;;;;;;23.05;30.02;100590.34;5026137;28;20071;-65
2021/05/26 07:30:40;;;;;;;5.15;1.60;;;;;;;23.27;29.14;100591.75;5034014;28;20052;-63
2021/05/26 07:33:07;;;;;;;24.30;2.60;;;;;;;23.71;29.49;100598.09;5028820;28;20136;-67
2021/05/26 07:35:33;;;;;;;20.88;2.33;;;;;;;24.55;28.58;100600.94;5027223;28;20163;-65
2021/05/26 07:38:00;;;;;;;6.15;1.67;;;;;;;24.76;28.40;100601.44;5023093;28;20047;-68
2021/05/26 07:40:26;;;;;;;4.05;1.30;;;;;;;25.38;27.48;100596.31;5009997;28;20056;-65
2021/05/26 07:42:52;;;;;;;5.00;1.30;;;;;;;25.90;26.73;100589.03;5009529;28;20090;-67
2021/05/26 07:45:18;;;;;;;7.18;1.58;;;;;;;25.72;26.40;100584.88;5043693;28;20037;-67
2021/05/26 07:47:45;;;;;;;8.40;1.75;;;;;;;25.95;25.49;100590.59;5010300;28;20542;-68
2021/05/26 07:50:12;;;;;;;11.85;1.88;;;;;;;25.64;25.79;100591.84;5042972;28;20124;-67
2021/05/26 07:52:38;;;;;;;8.57;1.67;;;;;;;26.06;25.30;100590.72;5044086;28;20044;-68
2021/05/26 07:55:05;;;;;;;4.35;1.55;;;;;;;26.91;24.18;100589.91;5025074;28;20041;-69
2021/05/26 07:57:31;;;;;;;3.17;1.48;;;;;;;27.24;23.89;100587.41;5043826;28;20041;-65
2021/05/26 07:59:57;;;;;;;7.70;1.42;;;;;;;28.20;23.66;100587.16;5026770;28;20063;-69
2021/05/26 08:02:26;;;;;;;14.18;1.95;;;;;;;27.88;23.26;100595.13;5042174;28;20450;-64
2021/05/26 08:05:12;;;;;;;6.63;1.35;;;;;;;28.64;21.93;100593.50;5012601;28;20106;-65
2021/05/26 08:07:56;;;;;;;7.15;1.33;;;;;;;28.82;21.61;100589.28;5027303;28;20052;-65
2021/05/26 08:10:42;;;;;;;6.32;1.30;;;;;;;31.01;20.02;100592.91;5029211;28;20041;-65
2021/05/26 08:13:27;;;;;;;7.32;1.52;;;;;;;29.08;21.46;100587.19;5026859;28;20045;-63
2021/05/26 08:16:11;;;;;;;8.93;1.80;;;;;;;31.68;18.91;100592.00;5040994;28;20123;-66
2021/05/26 08:18:57;;;;;;;2.03;1.02;;;;;;;30.59;19.50;100594.00;5029357;28;20037;-63
2021/05/26 08:21:41;;;;;;;7.38;1.90;;;;;;;30.41;19.88;100591.03;5026051;28;20084;-62
2021/05/26 08:24:26;;;;;;;10.05;1.92;;;;;;;30.84;19.90;100586.22;5008238;28;20489;-62
2021/05/26 08:27:11;;;;;;;11.57;1.70;;;;;;;30.86;19.41;100584.22;5009109;28;20107;-68
2021/05/26 08:29:59;;;;;;;9.10;2.25;;;;;;;31.09;19.04;100587.59;5011477;28;20045;-64
2021/05/26 08:32:44;;;;;;;4.40;1.70;;;;;;;33.85;16.66;100586.84;5036747;28;20056;-62
2021/05/26 08:35:29;;;;;;;4.05;1.30;;;;;;;30.63;18.89;100577.16;5044197;28;20033;-66
2021/05/26 08:38:13;;;;;;;10.65;1.70;;;;;;;33.79;16.61;100591.06;5028502;28;20056;-65
2021/05/26 08:41:02;;;;;;;6.18;1.33;;;;;;;34.51;16.55;100582.53;5041194;28;20194;-65
2021/05/26 08:43:46;;;;;;;9.45;1.90;;;;;;;36.09;15.18;100587.88;5026068;28;20049;-70
2021/05/26 08:46:35;;;;;;;9.15;1.45;;;;;;;35.86;15.11;100584.09;5039849;28;20153;-65
2021/05/26 08:49:21;;;;;;;4.35;1.33;;;;;;;35.30;14.83;100590.38;5031096;28;20523;-65
2021/05/26 08:52:06;;;;;;;5.00;1.65;;;;;;;36.63;14.41;100585.22;5029031;28;20033;-67
2021/05/26 08:54:51;;;;;;;16.85;1.80;;;;;;;37.27;13.91;100592.47;5010983;28;20033;-65
2021/05/26 08:57:35;;;;;;;9.18;1.60;;;;;;;36.19;14.24;100591.34;5031615;28;20521;-63
2021/05/26 09:00:20;;;;;;;9.75;1.70;;;;;;;38.05;13.25;100599.59;5028018;28;20045;-66
2021/05/26 09:03:05;;;;;;;11.40;1.50;;;;;;;38.15;13.01;100605.72;5030012;28;20053;-66
2021/05/26 09:05:53;;;;;;;12.55;2.00;;;;;;;39.17;12.40;100600.28;5026062;28;20048;-63
2021/05/26 09:08:46;;;;;;;9.70;1.52;;;;;;;38.87;12.79;100593.03;5041256;28;20087;-67
2021/05/26 09:11:33;;;;;;;6.60;1.45;;;;;;;38.68;12.84;100583.34;5029441;28;20103;-65
2021/05/26 09:14:18;;;;;;;6.57;1.88;;;;;;;39.46;12.05;100594.69;5023340;28;20079;-65
2021/05/26 09:17:12;;;;;;;5.40;1.40;;;;;;;39.26;11.93;100571.34;5030830;28;20041;-64
2021/05/26 09:20:30;;;;;;;4.90;1.90;;;;;;;39.00;12.46;100582.97;5028817;28;20083;-64
2021/05/26 09:23:19;;;;;;;14.43;1.70;;;;;;;39.58;11.76;100568.13;4973767;28;20088;-65
2021/05/26 09:26:03;;;;;;;12.25;1.70;;;;;;;35.10;15.31;100563.19;4969244;28;20057;-70
2021/05/26 09:28:47;;;;;;;11.32;1.83;;;;;;;32.52;17.11;100558.25;4957687;28;20085;-65
2021/05/26 09:31:32;;;;;;;5.45;1.80;;;;;;;35.82;14.66;100553.19;4973670;28;20034;-64
2021/05/26 09:34:36;;;;;;;5.18;1.60;;;;;;;33.81;16.15;100552.38;4988178;28;20532;-66
2021/05/26 09:37:22;;;;;;;5.80;1.65;;;;;;;35.39;15.13;100555.38;4971608;28;20509;-66
2021/05/26 09:40:13;;;;;;;9.23;1.50;;;;;;;35.32;14.63;100557.09;4968659;28;20141;-64
2021/05/26 09:42:57;;;;;;;6.82;1.60;;;;;;;35.02;15.10;100568.69;4975159;28;20073;-70
2021/05/26 09:45:41;;;;;;;10.10;1.60;;;;;;;35.14;14.63;100546.16;4980766;28;20078;-70
2021/05/26 09:48:26;;;;;;;6.88;1.50;;;;;;;32.94;16.59;100530.16;4998493;28;20082;-70
2021/05/26 09:51:26;;;;;;;5.43;1.60;;;;;;;36.11;14.34;100548.00;4967335;28;20618;-67
2021/05/26 09:54:20;;;;;;;7.50;1.65;;;;;;;33.30;15.71;100542.91;4981462;28;20062;-66
2021/05/26 09:57:06;;;;;;;8.60;1.65;;;;;;;34.41;14.88;100522.03;4982514;28;20129;-68
2021/05/26 09:59:51;;;;;;;6.72;1.63;;;;;;;34.48;15.07;100525.00;5046030;28;20045;-70
2021/05/26 10:02:30;;;;;;;11.45;1.98;;;;;;;37.96;13.08;100539.69;5013307;28;20052;-71
2021/05/26 10:04:56;;;;;;;9.75;1.60;;;;;;;36.99;13.03;100544.16;5027768;28;20098;-69
2021/05/26 10:07:42;;;;;;;9.70;1.63;;;;;;;35.68;14.14;100553.84;5044422;28;20040;-71
2021/05/26 10:10:12;;;;;;;5.95;1.55;;;;;;;31.96;16.82;100546.41;5045242;28;20072;-70
2021/05/26 10:12:50;;;;;;;4.75;1.05;;;;;;;32.64;16.55;100524.06;5013737;28;20816;-65
2021/05/26 10:15:18;;;;;;;5.03;1.10;;;;;;;37.26;13.50;100538.16;5026585;28;20102;-66
2021/05/26 10:17:51;;;;;;;4.07;1.30;;;;;;;34.83;14.87;100530.34;5046943;28;20480;-68
2021/05/26 10:20:26;;;;;;;4.47;1.30;;;;;;;31.06;18.31;100522.97;5019328;28;20063;-68
2021/05/26 10:22:55;;;;;;;7.75;1.30;;;;;;;29.86;19.96;100492.03;5045598;28;20036;-70
2021/05/26 10:25:21;;;;;;;4.13;1.20;;;;;;;30.92;18.61;100517.88;5035541;28;20452;-70
2021/05/26 10:27:50;;;;;;;3.17;1.38;;;;;;;29.30;20.34;100513.31;5037763;28;20052;-70
2021/05/26 10:30:21;;;;;;;8.50;1.67;;;;;;;33.66;16.20;100508.06;4992662;28;20048;-68
2021/05/26 10:32:59;;;;;;;4.55;1.42;;;;;;;35.13;15.31;100521.50;5046856;28;20098;-66
2021/05/26 10:35:57;;;;;;;5.57;1.40;;;;;;;35.24;15.36;100529.44;5009197;28;20049;-74
2021/05/26 10:38:24;;;;;;;11.68;1.40;;;;;;;37.62;13.65;100530.13;4993877;28;20416;-76
2021/05/26 10:40:52;;;;;;;5.45;1.23;;;;;;;37.80;13.50;100528.75;5010078;28;20044;-74
2021/05/26 10:43:21;;;;;;;4.10;1.30;;;;;;;38.55;13.12;100524.09;4981893;28;20446;-70
2021/05/26 10:45:53;;;;;;;5.18;1.10;;;;;;;39.60;12.02;100528.00;5028032;28;20045;-68
2021/05/26 10:48:43;;;;;;;5.85;1.20;;;;;;;37.64;13.18;100505.91;5033888;28;20067;-74
2021/05/26 10:51:12;;;;;;;5.97;1.38;;;;;;;35.00;15.10;100502.66;5025634;28;20132;-67
2021/05/26 10:53:42;;;;;;;2.17;0.98;;;;;;;33.42;16.71;100498.72;5016982;28;20496;-80
2021/05/26 10:56:37;;;;;;;4.07;0.95;;;;;;;33.02;17.05;100500.00;5017998;28;20041;-75
2021/05/26 10:59:14;;;;;;;3.13;0.82;;;;;;;31.05;18.97;100490.22;5026582;28;20124;-74
2021/05/26 11:02:07;;;;;;;6.15;1.17;;;;;;;32.83;17.60;100491.88;5019963;28;20044;-72
2021/05/26 11:04:35;;;;;;;2.13;0.98;;;;;;;35.49;14.92;100489.84;5014063;28;20134;-69
2021/05/26 11:07:22;;;;;;;5.22;1.10;;;;;;;36.92;14.23;100490.59;5029155;28;20171;-73
2021/05/26 11:10:05;;;;;;;8.15;1.10;;;;;;;38.15;13.34;100488.44;5011699;28;20045;-74
2021/05/26 11:12:56;;;;;;;4.10;0.93;;;;;;;35.40;15.77;100471.56;5011315;28;20170;-75
2021/05/26 11:15:41;;;;;;;6.50;1.00;;;;;;;36.19;15.06;100484.44;4995168;28;20135;-74
2021/05/26 11:18:10;;;;;;;4.43;1.30;;;;;;;33.63;16.63;100467.09;5025181;28;20055;-74
2021/05/26 11:20:35;;;;;;;8.48;1.00;;;;;;;32.06;18.32;100460.28;5027528;28;20090;-71
2021/05/26 11:23:14;;;;;;;6.05;1.13;;;;;;;32.18;18.16;100467.31;5011193;28;20057;-66
2021/05/26 11:25:49;;;;;;;14.75;1.13;;;;;;;31.39;19.08;100448.56;4994650;28;20092;-75
2021/05/26 11:28:33;;;;;;;4.40;1.05;;;;;;;30.63;20.10;100451.19;5007613;28;20103;-68
2021/05/26 11:31:09;;;;;;;5.75;1.30;;;;;;;31.50;19.18;100451.16;5037547;28;20040;-72
2021/05/26 11:33:39;;;;;;;6.38;1.10;;;;;;;32.36;18.21;100448.19;5012772;28;20098;-68
2021/05/26 11:36:07;;;;;;;6.47;1.38;;;;;;;33.85;17.48;100440.97;5027411;28;20072;-69
2021/05/26 11:38:34;;;;;;;6.13;1.42;;;;;;;32.54;18.02;100432.59;5027194;28;20095;-76
2021/05/26 11:41:00;;;;;;;4.50;1.10;;;;;;;31.84;19.08;100433.19;5032097;28;20057;-73